Terminal Aerodrome Forecast
Issued by NWS Newport/Morehead City, NC

Home | Current Version | Previous Version | Text Only | Print | Product List | Glossary On
Versions: 1 2 3 4 5 6 7 8 9 10 11 12 13 14 15 16 17 18 19 20 21 22 23 24 25 26
000
FTUS42 KMHX 131300 AAA
TAFEWN
TAF AMD
KEWN 131356Z 1314/1412 00000KT 6SM BR SCT008 BKN025
      TEMPO 1314/1315 BKN008
     FM131500 VRB04KT P6SM VCSH OVC025
     FM131700 21005KT P6SM VCTS BKN035CB
      TEMPO 1320/1324 3SM TSRA BKN020CB
     FM140000 22004KT P6SM VCTS OVC035CB
      TEMPO 1400/1404 2SM TSRA OVC020CB
     FM140600 02003KT 4SM BR OVC007=

USA.gov is the U.S. government's official web portal to all federal, state and local government web resources and services.